CheckWX is a tool to help pilots better visualize weather data.  It is not intended as a substitute for an official pre-flight weather briefing.

03:18:39 UTC

KAEL METAR
Albert Lea Municipal Airport
Albert Lea, Minnesota, USA
Current

33 mins ago

KAEL 230246Z AUTO 00000KT 10SM CLR 11/11 A2996 RMK AO2
Observed
Sep-23 @ 02:46 UTC
Visibility
10 SM
Flight Rules
VFR
Cloud Levels
  • Clear skies
Temperature
11°C / 52°F
Dewpoint
11°C / 52°F
Humidity
100%
Altimeter
29.96" Hg
Pressure
1014.52 hPa
Previous

51 mins ago

KAEL 230228Z AUTO 00000KT 10SM CLR 12/11 A2995 RMK AO2
Observed
Sep-23 @ 02:28 UTC
Visibility
10 SM
Flight Rules
VFR
Cloud Levels
  • Clear skies
Temperature
12°C / 54°F
Dewpoint
11°C / 52°F
Humidity
94%
Altimeter
29.95" Hg
Pressure
1014.22 hPa
Previous

1 hour ago

KAEL 230206Z AUTO 00000KT 10SM CLR 12/11 A2995 RMK AO2
Observed
Sep-23 @ 02:06 UTC
Visibility
10 SM
Flight Rules
VFR
Cloud Levels
  • Clear skies
Temperature
12°C / 54°F
Dewpoint
11°C / 52°F
Humidity
94%
Altimeter
29.95" Hg
Pressure
1014.22 hPa